DAOO/ORN METAR and TAF weather

Enter ICAO airport designator
Station Type Date Time Source
DAOO METAR 2019/08/22 02:30 UTC NOAA

DAOO 220230Z 34008KT 9999 FEW013 SCT020 24/22 Q1016


Station Type Date Time Source
DAOO Decoded METAR 2019/08/22 02:30 UTC NOAA

Station name not available
Aug 21, 2019 - 10:30 PM EDT / 2019.08.22 0230 UTC
Wind: from the NNW (340 degrees) at 9 MPH (8 KT):0
Visibility: greater than 7 mile(s):0
Sky conditions: partly cloudy
Temperature: 75 F (24 C)
Dew Point: 71 F (22 C)
Relative Humidity: 88%
Pressure (altimeter): 30.00 in. Hg (1016 hPa)
ob: DAOO 220230Z 34008KT 9999 FEW013 SCT020 24/22 Q1016
cycle: 2

Station Type Date Time Source
DAOO TAF 2019/08/21 18:33 UTC NOAA

TAF DAOO 211700Z 2118/2218 04014KT 9999 BKN026
BECMG PROB40
TEMPO 2122/2209 9999 RA BKN023
BECMG 2209/2212 9999 SCT026
BECMG 2213/2215 9999 SCT026 FEW030CB
BECMG 2216/2218 9999 SCT026

Example: see airport list